sensor_id;sensor_type;location;lat;lon;timestamp;P1;durP1;ratioP1;P2;durP2;ratioP2
2021;SDS011;1015;49.756;6.994;2023-04-01T00:01:00;4.33;;;1.60;;
2021;SDS011;1015;49.756;6.994;2023-04-01T00:03:28;3.20;;;0.80;;
2021;SDS011;1015;49.756;6.994;2023-04-01T00:05:58;2.93;;;1.37;;
2021;SDS011;1015;49.756;6.994;2023-04-01T00:08:26;4.13;;;1.60;;
2021;SDS011;1015;49.756;6.994;2023-04-01T00:10:54;2.20;;;1.40;;
2021;SDS011;1015;49.756;6.994;2023-04-01T00:13:22;5.00;;;1.10;;
2021;SDS011;1015;49.756;6.994;2023-04-01T00:15:50;3.70;;;1.40;;
2021;SDS011;1015;49.756;6.994;2023-04-01T00:18:18;2.00;;;1.20;;
2021;SDS011;1015;49.756;6.994;2023-04-01T00:20:45;3.00;;;1.20;;
2021;SDS011;1015;49.756;6.994;2023-04-01T00:23:13;2.80;;;1.27;;
2021;SDS011;1015;49.756;6.994;2023-04-01T00:25:41;1.70;;;1.23;;
2021;SDS011;1015;49.756;6.994;2023-04-01T00:28:09;2.17;;;1.27;;
2021;SDS011;1015;49.756;6.994;2023-04-01T00:30:37;2.83;;;1.10;;
2021;SDS011;1015;49.756;6.994;2023-04-01T00:33:04;5.47;;;1.57;;
2021;SDS011;1015;49.756;6.994;2023-04-01T00:35:31;2.83;;;0.90;;
2021;SDS011;1015;49.756;6.994;2023-04-01T00:37:59;1.93;;;0.90;;
2021;SDS011;1015;49.756;6.994;2023-04-01T00:40:28;4.00;;;1.00;;
2021;SDS011;1015;49.756;6.994;2023-04-01T00:42:55;2.13;;;1.23;;
2021;SDS011;1015;49.756;6.994;2023-04-01T00:45:28;3.37;;;1.17;;
2021;SDS011;1015;49.756;6.994;2023-04-01T00:47:56;5.03;;;1.37;;
2021;SDS011;1015;49.756;6.994;2023-04-01T00:50:24;1.40;;;1.30;;
2021;SDS011;1015;49.756;6.994;2023-04-01T00:52:53;2.50;;;1.37;;
2021;SDS011;1015;49.756;6.994;2023-04-01T00:55:20;3.60;;;1.17;;
2021;SDS011;1015;49.756;6.994;2023-04-01T00:57:48;4.30;;;1.30;;
2021;SDS011;1015;49.756;6.994;2023-04-01T01:00:16;3.73;;;1.00;;
2021;SDS011;1015;49.756;6.994;2023-04-01T01:02:45;2.60;;;1.50;;
2021;SDS011;1015;49.756;6.994;2023-04-01T01:05:13;4.03;;;1.20;;
2021;SDS011;1015;49.756;6.994;2023-04-01T01:07:41;1.80;;;1.27;;
2021;SDS011;1015;49.756;6.994;2023-04-01T01:10:14;3.30;;;1.20;;
2021;SDS011;1015;49.756;6.994;2023-04-01T01:12:44;2.23;;;0.93;;
2021;SDS011;1015;49.756;6.994;2023-04-01T01:15:14;2.73;;;1.10;;
2021;SDS011;1015;49.756;6.994;2023-04-01T01:17:47;2.73;;;1.20;;
2021;SDS011;1015;49.756;6.994;2023-04-01T01:25:55;1.80;;;1.13;;
2021;SDS011;1015;49.756;6.994;2023-04-01T01:28:29;4.80;;;1.67;;
2021;SDS011;1015;49.756;6.994;2023-04-01T01:31:02;4.30;;;1.10;;
2021;SDS011;1015;49.756;6.994;2023-04-01T01:33:57;2.07;;;1.20;;
2021;SDS011;1015;49.756;6.994;2023-04-01T01:36:28;4.77;;;1.10;;
2021;SDS011;1015;49.756;6.994;2023-04-01T01:38:59;6.03;;;1.47;;
2021;SDS011;1015;49.756;6.994;2023-04-01T01:41:26;2.60;;;1.20;;
2021;SDS011;1015;49.756;6.994;2023-04-01T01:43:54;2.80;;;1.07;;
2021;SDS011;1015;49.756;6.994;2023-04-01T01:46:24;4.80;;;1.23;;
2021;SDS011;1015;49.756;6.994;2023-04-01T01:48:52;2.07;;;1.00;;
2021;SDS011;1015;49.756;6.994;2023-04-01T01:51:20;3.67;;;1.37;;
2021;SDS011;1015;49.756;6.994;2023-04-01T01:53:49;2.30;;;1.10;;
2021;SDS011;1015;49.756;6.994;2023-04-01T01:56:17;4.23;;;1.00;;
2021;SDS011;1015;49.756;6.994;2023-04-01T01:58:45;4.13;;;1.30;;
2021;SDS011;1015;49.756;6.994;2023-04-01T02:01:16;3.40;;;1.50;;
2021;SDS011;1015;49.756;6.994;2023-04-01T02:03:44;2.73;;;1.00;;
2021;SDS011;1015;49.756;6.994;2023-04-01T02:06:13;2.90;;;0.90;;
2021;SDS011;1015;49.756;6.994;2023-04-01T02:08:42;2.10;;;0.90;;
2021;SDS011;1015;49.756;6.994;2023-04-01T02:11:12;1.77;;;0.93;;
2021;SDS011;1015;49.756;6.994;2023-04-01T02:13:40;1.83;;;1.30;;
2021;SDS011;1015;49.756;6.994;2023-04-01T02:16:11;1.87;;;0.90;;
2021;SDS011;1015;49.756;6.994;2023-04-01T02:18:39;3.60;;;1.33;;
2021;SDS011;1015;49.756;6.994;2023-04-01T02:21:07;1.67;;;1.00;;
2021;SDS011;1015;49.756;6.994;2023-04-01T02:23:35;3.10;;;1.07;;
2021;SDS011;1015;49.756;6.994;2023-04-01T02:26:03;3.70;;;1.23;;
2021;SDS011;1015;49.756;6.994;2023-04-01T02:28:33;6.13;;;1.50;;
2021;SDS011;1015;49.756;6.994;2023-04-01T02:31:01;4.60;;;1.47;;
2021;SDS011;1015;49.756;6.994;2023-04-01T02:33:29;3.40;;;1.13;;
2021;SDS011;1015;49.756;6.994;2023-04-01T02:35:57;4.10;;;1.33;;
2021;SDS011;1015;49.756;6.994;2023-04-01T02:38:24;2.00;;;1.10;;
2021;SDS011;1015;49.756;6.994;2023-04-01T02:40:56;5.70;;;1.40;;
2021;SDS011;1015;49.756;6.994;2023-04-01T02:43:25;2.23;;;1.20;;
2021;SDS011;1015;49.756;6.994;2023-04-01T02:45:54;3.37;;;1.43;;
2021;SDS011;1015;49.756;6.994;2023-04-01T02:48:21;3.33;;;1.40;;
2021;SDS011;1015;49.756;6.994;2023-04-01T02:50:48;1.87;;;1.13;;
2021;SDS011;1015;49.756;6.994;2023-04-01T02:53:15;2.93;;;1.20;;
2021;SDS011;1015;49.756;6.994;2023-04-01T02:55:43;3.77;;;1.27;;
2021;SDS011;1015;49.756;6.994;2023-04-01T02:58:10;4.83;;;1.30;;
2021;SDS011;1015;49.756;6.994;2023-04-01T03:00:38;4.87;;;1.70;;
2021;SDS011;1015;49.756;6.994;2023-04-01T03:03:06;3.00;;;1.20;;
2021;SDS011;1015;49.756;6.994;2023-04-01T03:05:33;2.70;;;1.10;;
2021;SDS011;1015;49.756;6.994;2023-04-01T03:08:01;3.57;;;1.10;;
2021;SDS011;1015;49.756;6.994;2023-04-01T03:10:28;0.73;;;0.63;;
2021;SDS011;1015;49.756;6.994;2023-04-01T03:12:55;2.80;;;0.90;;
2021;SDS011;1015;49.756;6.994;2023-04-01T03:15:22;2.70;;;1.00;;
2021;SDS011;1015;49.756;6.994;2023-04-01T03:17:50;2.70;;;0.93;;
2021;SDS011;1015;49.756;6.994;2023-04-01T03:20:18;2.63;;;1.00;;
2021;SDS011;1015;49.756;6.994;2023-04-01T03:22:46;1.70;;;1.00;;
2021;SDS011;1015;49.756;6.994;2023-04-01T03:25:13;1.83;;;0.90;;
2021;SDS011;1015;49.756;6.994;2023-04-01T03:27:40;3.33;;;1.00;;
2021;SDS011;1015;49.756;6.994;2023-04-01T03:30:08;2.87;;;1.03;;
2021;SDS011;1015;49.756;6.994;2023-04-01T03:32:35;2.97;;;0.90;;
2021;SDS011;1015;49.756;6.994;2023-04-01T03:35:02;5.13;;;1.00;;
2021;SDS011;1015;49.756;6.994;2023-04-01T03:37:31;1.53;;;0.80;;
2021;SDS011;1015;49.756;6.994;2023-04-01T03:39:59;1.57;;;0.90;;
2021;SDS011;1015;49.756;6.994;2023-04-01T03:42:26;1.93;;;1.00;;
2021;SDS011;1015;49.756;6.994;2023-04-01T03:44:53;3.00;;;1.13;;
2021;SDS011;1015;49.756;6.994;2023-04-01T03:47:20;3.13;;;0.77;;
2021;SDS011;1015;49.756;6.994;2023-04-01T03:49:47;2.10;;;0.80;;
2021;SDS011;1015;49.756;6.994;2023-04-01T03:52:15;2.10;;;1.00;;
2021;SDS011;1015;49.756;6.994;2023-04-01T03:54:43;3.27;;;1.07;;
2021;SDS011;1015;49.756;6.994;2023-04-01T03:57:10;1.37;;;1.00;;
2021;SDS011;1015;49.756;6.994;2023-04-01T03:59:37;1.30;;;0.73;;
2021;SDS011;1015;49.756;6.994;2023-04-01T04:02:05;1.53;;;0.80;;
2021;SDS011;1015;49.756;6.994;2023-04-01T04:04:32;4.63;;;0.93;;
2021;SDS011;1015;49.756;6.994;2023-04-01T04:06:59;0.90;;;0.60;;
2021;SDS011;1015;49.756;6.994;2023-04-01T04:09:26;3.20;;;0.90;;
2021;SDS011;1015;49.756;6.994;2023-04-01T04:11:55;4.40;;;0.90;;
2021;SDS011;1015;49.756;6.994;2023-04-01T04:14:22;1.53;;;0.50;;
2021;SDS011;1015;49.756;6.994;2023-04-01T04:16:49;1.73;;;0.90;;
2021;SDS011;1015;49.756;6.994;2023-04-01T04:19:16;1.23;;;0.67;;
2021;SDS011;1015;49.756;6.994;2023-04-01T04:21:44;2.63;;;0.90;;
2021;SDS011;1015;49.756;6.994;2023-04-01T04:24:11;2.10;;;0.60;;
2021;SDS011;1015;49.756;6.994;2023-04-01T04:26:38;0.90;;;0.80;;
2021;SDS011;1015;49.756;6.994;2023-04-01T04:29:07;1.57;;;0.90;;
2021;SDS011;1015;49.756;6.994;2023-04-01T04:31:34;1.43;;;0.80;;
2021;SDS011;1015;49.756;6.994;2023-04-01T04:34:01;1.70;;;1.23;;
2021;SDS011;1015;49.756;6.994;2023-04-01T04:36:28;1.67;;;0.90;;
2021;SDS011;1015;49.756;6.994;2023-04-01T04:38:55;0.83;;;0.70;;
2021;SDS011;1015;49.756;6.994;2023-04-01T04:41:23;1.67;;;1.00;;
2021;SDS011;1015;49.756;6.994;2023-04-01T04:43:51;0.90;;;0.70;;
2021;SDS011;1015;49.756;6.994;2023-04-01T04:46:20;0.73;;;0.70;;
2021;SDS011;1015;49.756;6.994;2023-04-01T04:48:47;1.77;;;0.80;;
2021;SDS011;1015;49.756;6.994;2023-04-01T04:51:14;1.23;;;0.60;;
2021;SDS011;1015;49.756;6.994;2023-04-01T04:53:42;0.70;;;0.70;;
2021;SDS011;1015;49.756;6.994;2023-04-01T04:56:09;1.37;;;0.60;;
2021;SDS011;1015;49.756;6.994;2023-04-01T04:58:36;1.37;;;0.70;;
2021;SDS011;1015;49.756;6.994;2023-04-01T05:01:07;1.23;;;0.70;;
2021;SDS011;1015;49.756;6.994;2023-04-01T05:03:36;1.10;;;1.00;;
2021;SDS011;1015;49.756;6.994;2023-04-01T05:06:04;0.80;;;0.60;;
2021;SDS011;1015;49.756;6.994;2023-04-01T05:08:31;1.87;;;0.80;;
2021;SDS011;1015;49.756;6.994;2023-04-01T05:10:59;2.23;;;0.73;;
2021;SDS011;1015;49.756;6.994;2023-04-01T05:13:26;0.70;;;0.50;;
2021;SDS011;1015;49.756;6.994;2023-04-01T05:15:54;0.80;;;0.50;;
2021;SDS011;1015;49.756;6.994;2023-04-01T05:18:21;1.00;;;0.50;;
2021;SDS011;1015;49.756;6.994;2023-04-01T05:20:50;2.20;;;0.63;;
2021;SDS011;1015;49.756;6.994;2023-04-01T05:23:17;0.57;;;0.50;;
2021;SDS011;1015;49.756;6.994;2023-04-01T05:25:46;0.77;;;0.50;;
2021;SDS011;1015;49.756;6.994;2023-04-01T05:28:13;1.07;;;0.87;;
2021;SDS011;1015;49.756;6.994;2023-04-01T05:30:40;0.50;;;0.50;;
2021;SDS011;1015;49.756;6.994;2023-04-01T05:33:08;1.47;;;0.70;;
2021;SDS011;1015;49.756;6.994;2023-04-01T05:35:35;0.80;;;0.60;;
2021;SDS011;1015;49.756;6.994;2023-04-01T05:38:03;3.10;;;0.53;;
2021;SDS011;1015;49.756;6.994;2023-04-01T05:40:31;1.23;;;0.50;;
2021;SDS011;1015;49.756;6.994;2023-04-01T05:42:58;1.70;;;0.40;;
2021;SDS011;1015;49.756;6.994;2023-04-01T05:45:26;0.83;;;0.60;;
2021;SDS011;1015;49.756;6.994;2023-04-01T05:47:53;0.60;;;0.60;;
2021;SDS011;1015;49.756;6.994;2023-04-01T05:50:20;0.50;;;0.50;;
2021;SDS011;1015;49.756;6.994;2023-04-01T05:52:47;1.50;;;0.50;;
2021;SDS011;1015;49.756;6.994;2023-04-01T05:55:16;0.97;;;0.40;;
2021;SDS011;1015;49.756;6.994;2023-04-01T05:57:44;0.93;;;0.60;;
2021;SDS011;1015;49.756;6.994;2023-04-01T06:00:13;1.03;;;0.50;;
2021;SDS011;1015;49.756;6.994;2023-04-01T06:02:40;0.70;;;0.60;;
2021;SDS011;1015;49.756;6.994;2023-04-01T06:05:15;0.80;;;0.50;;
2021;SDS011;1015;49.756;6.994;2023-04-01T06:07:44;0.70;;;0.50;;
2021;SDS011;1015;49.756;6.994;2023-04-01T06:10:16;1.30;;;0.47;;
2021;SDS011;1015;49.756;6.994;2023-04-01T06:12:51;1.80;;;0.50;;
2021;SDS011;1015;49.756;6.994;2023-04-01T06:15:23;0.50;;;0.40;;
2021;SDS011;1015;49.756;6.994;2023-04-01T06:20:35;0.40;;;0.40;;
2021;SDS011;1015;49.756;6.994;2023-04-01T06:23:07;0.60;;;0.40;;
2021;SDS011;1015;49.756;6.994;2023-04-01T06:25:50;1.87;;;0.50;;
2021;SDS011;1015;49.756;6.994;2023-04-01T06:28:30;0.40;;;0.40;;
2021;SDS011;1015;49.756;6.994;2023-04-01T06:31:03;0.87;;;0.53;;
2021;SDS011;1015;49.756;6.994;2023-04-01T06:33:38;1.73;;;0.80;;
2021;SDS011;1015;49.756;6.994;2023-04-01T06:36:12;0.80;;;0.63;;
2021;SDS011;1015;49.756;6.994;2023-04-01T06:38:45;0.40;;;0.30;;
2021;SDS011;1015;49.756;6.994;2023-04-01T06:44:06;0.60;;;0.30;;
2021;SDS011;1015;49.756;6.994;2023-04-01T06:46:38;0.40;;;0.30;;
2021;SDS011;1015;49.756;6.994;2023-04-01T06:49:17;0.50;;;0.40;;
2021;SDS011;1015;49.756;6.994;2023-04-01T06:51:47;0.40;;;0.40;;
2021;SDS011;1015;49.756;6.994;2023-04-01T06:54:17;0.60;;;0.50;;
2021;SDS011;1015;49.756;6.994;2023-04-01T06:56:49;0.40;;;0.40;;
2021;SDS011;1015;49.756;6.994;2023-04-01T06:59:22;0.50;;;0.50;;
2021;SDS011;1015;49.756;6.994;2023-04-01T07:01:52;0.40;;;0.40;;
2021;SDS011;1015;49.756;6.994;2023-04-01T07:04:21;0.97;;;0.57;;
2021;SDS011;1015;49.756;6.994;2023-04-01T07:06:50;0.60;;;0.60;;
2021;SDS011;1015;49.756;6.994;2023-04-01T07:09:20;1.10;;;0.60;;
2021;SDS011;1015;49.756;6.994;2023-04-01T07:11:49;0.70;;;0.50;;
2021;SDS011;1015;49.756;6.994;2023-04-01T07:14:19;0.50;;;0.50;;
2021;SDS011;1015;49.756;6.994;2023-04-01T07:16:50;0.90;;;0.40;;
2021;SDS011;1015;49.756;6.994;2023-04-01T07:19:22;0.60;;;0.40;;
2021;SDS011;1015;49.756;6.994;2023-04-01T07:21:51;1.57;;;0.50;;
2021;SDS011;1015;49.756;6.994;2023-04-01T07:24:21;0.50;;;0.40;;
2021;SDS011;1015;49.756;6.994;2023-04-01T07:26:51;1.33;;;0.50;;
2021;SDS011;1015;49.756;6.994;2023-04-01T07:29:20;0.40;;;0.30;;
2021;SDS011;1015;49.756;6.994;2023-04-01T07:31:56;0.50;;;0.50;;
2021;SDS011;1015;49.756;6.994;2023-04-01T07:34:27;0.50;;;0.40;;
2021;SDS011;1015;49.756;6.994;2023-04-01T07:36:56;1.40;;;1.27;;
2021;SDS011;1015;49.756;6.994;2023-04-01T07:39:30;1.23;;;0.80;;
2021;SDS011;1015;49.756;6.994;2023-04-01T07:42:04;0.50;;;0.50;;
2021;SDS011;1015;49.756;6.994;2023-04-01T07:44:38;0.50;;;0.40;;
2021;SDS011;1015;49.756;6.994;2023-04-01T07:47:21;1.07;;;0.50;;
2021;SDS011;1015;49.756;6.994;2023-04-01T07:49:56;1.97;;;1.10;;
2021;SDS011;1015;49.756;6.994;2023-04-01T07:52:29;0.40;;;0.33;;
2021;SDS011;1015;49.756;6.994;2023-04-01T07:54:59;0.40;;;0.40;;
2021;SDS011;1015;49.756;6.994;2023-04-01T07:57:34;1.33;;;0.43;;
2021;SDS011;1015;49.756;6.994;2023-04-01T08:00:04;0.50;;;0.40;;
2021;SDS011;1015;49.756;6.994;2023-04-01T08:02:43;0.63;;;0.40;;
2021;SDS011;1015;49.756;6.994;2023-04-01T08:05:14;0.50;;;0.40;;
2021;SDS011;1015;49.756;6.994;2023-04-01T08:07:45;0.60;;;0.50;;
2021;SDS011;1015;49.756;6.994;2023-04-01T08:10:15;0.83;;;0.40;;
2021;SDS011;1015;49.756;6.994;2023-04-01T08:12:47;1.17;;;0.50;;
2021;SDS011;1015;49.756;6.994;2023-04-01T08:15:20;1.17;;;0.53;;
2021;SDS011;1015;49.756;6.994;2023-04-01T08:17:53;0.50;;;0.40;;
2021;SDS011;1015;49.756;6.994;2023-04-01T08:20:27;0.50;;;0.50;;
2021;SDS011;1015;49.756;6.994;2023-04-01T08:22:57;0.63;;;0.50;;
2021;SDS011;1015;49.756;6.994;2023-04-01T08:25:27;0.60;;;0.50;;
2021;SDS011;1015;49.756;6.994;2023-04-01T08:27:55;0.43;;;0.43;;
2021;SDS011;1015;49.756;6.994;2023-04-01T08:30:24;0.60;;;0.60;;
2021;SDS011;1015;49.756;6.994;2023-04-01T08:32:54;0.63;;;0.63;;
2021;SDS011;1015;49.756;6.994;2023-04-01T08:35:26;0.40;;;0.40;;
2021;SDS011;1015;49.756;6.994;2023-04-01T08:37:53;1.03;;;0.50;;
2021;SDS011;1015;49.756;6.994;2023-04-01T08:40:39;0.77;;;0.60;;
2021;SDS011;1015;49.756;6.994;2023-04-01T08:43:11;0.50;;;0.50;;
2021;SDS011;1015;49.756;6.994;2023-04-01T08:45:48;0.60;;;0.60;;
2021;SDS011;1015;49.756;6.994;2023-04-01T08:48:25;0.80;;;0.50;;
2021;SDS011;1015;49.756;6.994;2023-04-01T08:53:53;0.40;;;0.40;;
2021;SDS011;1015;49.756;6.994;2023-04-01T08:56:25;0.40;;;0.40;;
2021;SDS011;1015;49.756;6.994;2023-04-01T09:01:54;0.50;;;0.50;;
2021;SDS011;1015;49.756;6.994;2023-04-01T09:04:29;0.50;;;0.50;;
2021;SDS011;1015;49.756;6.994;2023-04-01T09:07:03;0.50;;;0.40;;
2021;SDS011;1015;49.756;6.994;2023-04-01T09:09:40;0.60;;;0.40;;
2021;SDS011;1015;49.756;6.994;2023-04-01T09:12:17;0.50;;;0.40;;
2021;SDS011;1015;49.756;6.994;2023-04-01T09:14:50;0.40;;;0.40;;
2021;SDS011;1015;49.756;6.994;2023-04-01T09:17:28;0.60;;;0.50;;
2021;SDS011;1015;49.756;6.994;2023-04-01T09:20:07;0.43;;;0.30;;
2021;SDS011;1015;49.756;6.994;2023-04-01T09:22:37;0.60;;;0.50;;
2021;SDS011;1015;49.756;6.994;2023-04-01T09:27:54;0.40;;;0.40;;
2021;SDS011;1015;49.756;6.994;2023-04-01T09:35:55;0.40;;;0.40;;
2021;SDS011;1015;49.756;6.994;2023-04-01T09:38:30;2.40;;;0.63;;
2021;SDS011;1015;49.756;6.994;2023-04-01T09:41:06;0.50;;;0.40;;
2021;SDS011;1015;49.756;6.994;2023-04-01T09:43:48;0.40;;;0.40;;
2021;SDS011;1015;49.756;6.994;2023-04-01T09:46:22;0.60;;;0.60;;
2021;SDS011;1015;49.756;6.994;2023-04-01T09:49:04;0.53;;;0.40;;
2021;SDS011;1015;49.756;6.994;2023-04-01T09:51:38;0.60;;;0.40;;
2021;SDS011;1015;49.756;6.994;2023-04-01T09:59:47;0.60;;;0.40;;
2021;SDS011;1015;49.756;6.994;2023-04-01T10:08:20;0.60;;;0.60;;
2021;SDS011;1015;49.756;6.994;2023-04-01T10:10:59;0.70;;;0.70;;
2021;SDS011;1015;49.756;6.994;2023-04-01T10:19:15;0.67;;;0.67;;
2021;SDS011;1015;49.756;6.994;2023-04-01T10:24:34;0.53;;;0.53;;
2021;SDS011;1015;49.756;6.994;2023-04-01T10:27:08;0.90;;;0.90;;
2021;SDS011;1015;49.756;6.994;2023-04-01T10:37:55;0.63;;;0.63;;
2021;SDS011;1015;49.756;6.994;2023-04-01T10:40:37;1.07;;;1.00;;
2021;SDS011;1015;49.756;6.994;2023-04-01T10:43:19;0.60;;;0.60;;
2021;SDS011;1015;49.756;6.994;2023-04-01T10:45:57;0.60;;;0.60;;
2021;SDS011;1015;49.756;6.994;2023-04-01T10:51:22;0.70;;;0.70;;
2021;SDS011;1015;49.756;6.994;2023-04-01T10:54:00;0.80;;;0.60;;
2021;SDS011;1015;49.756;6.994;2023-04-01T10:56:40;0.50;;;0.43;;
2021;SDS011;1015;49.756;6.994;2023-04-01T10:59:28;0.50;;;0.50;;
2021;SDS011;1015;49.756;6.994;2023-04-01T11:02:07;0.63;;;0.50;;
2021;SDS011;1015;49.756;6.994;2023-04-01T11:04:44;0.57;;;0.57;;
2021;SDS011;1015;49.756;6.994;2023-04-01T11:07:22;0.83;;;0.60;;
2021;SDS011;1015;49.756;6.994;2023-04-01T11:10:02;0.90;;;0.53;;
2021;SDS011;1015;49.756;6.994;2023-04-01T11:12:46;0.40;;;0.40;;
2021;SDS011;1015;49.756;6.994;2023-04-01T11:15:23;0.87;;;0.80;;
2021;SDS011;1015;49.756;6.994;2023-04-01T11:18:07;0.70;;;0.60;;
2021;SDS011;1015;49.756;6.994;2023-04-01T11:23:38;0.70;;;0.70;;
2021;SDS011;1015;49.756;6.994;2023-04-01T11:26:09;0.60;;;0.60;;
2021;SDS011;1015;49.756;6.994;2023-04-01T11:28:50;2.37;;;0.70;;
2021;SDS011;1015;49.756;6.994;2023-04-01T11:31:34;0.60;;;0.60;;
2021;SDS011;1015;49.756;6.994;2023-04-01T11:34:05;0.70;;;0.60;;
2021;SDS011;1015;49.756;6.994;2023-04-01T11:36:40;1.00;;;0.60;;
2021;SDS011;1015;49.756;6.994;2023-04-01T11:39:14;0.60;;;0.60;;
2021;SDS011;1015;49.756;6.994;2023-04-01T11:41:49;0.50;;;0.50;;
2021;SDS011;1015;49.756;6.994;2023-04-01T11:44:20;0.80;;;0.80;;
2021;SDS011;1015;49.756;6.994;2023-04-01T11:46:54;0.70;;;0.70;;
2021;SDS011;1015;49.756;6.994;2023-04-01T11:49:33;1.30;;;0.87;;
2021;SDS011;1015;49.756;6.994;2023-04-01T11:52:12;0.70;;;0.70;;
2021;SDS011;1015;49.756;6.994;2023-04-01T11:54:47;1.03;;;0.53;;
2021;SDS011;1015;49.756;6.994;2023-04-01T11:57:30;0.63;;;0.60;;
2021;SDS011;1015;49.756;6.994;2023-04-01T12:00:10;0.70;;;0.70;;
2021;SDS011;1015;49.756;6.994;2023-04-01T12:02:46;0.40;;;0.40;;
2021;SDS011;1015;49.756;6.994;2023-04-01T12:05:25;0.50;;;0.50;;
2021;SDS011;1015;49.756;6.994;2023-04-01T12:08:04;0.70;;;0.50;;
2021;SDS011;1015;49.756;6.994;2023-04-01T12:10:37;0.50;;;0.50;;
2021;SDS011;1015;49.756;6.994;2023-04-01T12:13:07;0.70;;;0.70;;
2021;SDS011;1015;49.756;6.994;2023-04-01T12:15:44;0.50;;;0.50;;
2021;SDS011;1015;49.756;6.994;2023-04-01T12:18:15;0.60;;;0.50;;
2021;SDS011;1015;49.756;6.994;2023-04-01T12:20:48;0.70;;;0.60;;
2021;SDS011;1015;49.756;6.994;2023-04-01T12:23:22;0.80;;;0.80;;
2021;SDS011;1015;49.756;6.994;2023-04-01T12:26:03;0.60;;;0.60;;
2021;SDS011;1015;49.756;6.994;2023-04-01T12:28:37;0.50;;;0.50;;
2021;SDS011;1015;49.756;6.994;2023-04-01T12:31:15;0.80;;;0.60;;
2021;SDS011;1015;49.756;6.994;2023-04-01T12:34:00;0.50;;;0.50;;
2021;SDS011;1015;49.756;6.994;2023-04-01T12:36:35;0.70;;;0.60;;
2021;SDS011;1015;49.756;6.994;2023-04-01T12:39:14;0.70;;;0.60;;
2021;SDS011;1015;49.756;6.994;2023-04-01T12:41:46;0.50;;;0.50;;
2021;SDS011;1015;49.756;6.994;2023-04-01T12:52:32;0.50;;;0.50;;
2021;SDS011;1015;49.756;6.994;2023-04-01T12:55:07;0.50;;;0.50;;
2021;SDS011;1015;49.756;6.994;2023-04-01T13:00:40;0.50;;;0.50;;
2021;SDS011;1015;49.756;6.994;2023-04-01T13:03:16;0.80;;;0.50;;
2021;SDS011;1015;49.756;6.994;2023-04-01T13:06:02;0.80;;;0.60;;
2021;SDS011;1015;49.756;6.994;2023-04-01T13:08:38;0.80;;;0.73;;
2021;SDS011;1015;49.756;6.994;2023-04-01T13:11:13;0.60;;;0.60;;
2021;SDS011;1015;49.756;6.994;2023-04-01T13:13:46;0.80;;;0.77;;
2021;SDS011;1015;49.756;6.994;2023-04-01T13:16:16;0.70;;;0.70;;
2021;SDS011;1015;49.756;6.994;2023-04-01T13:18:51;0.67;;;0.53;;
2021;SDS011;1015;49.756;6.994;2023-04-01T13:21:24;0.60;;;0.60;;
2021;SDS011;1015;49.756;6.994;2023-04-01T13:23:58;0.60;;;0.60;;
2021;SDS011;1015;49.756;6.994;2023-04-01T13:26:30;0.50;;;0.50;;
2021;SDS011;1015;49.756;6.994;2023-04-01T13:29:03;0.60;;;0.53;;
2021;SDS011;1015;49.756;6.994;2023-04-01T13:31:35;0.97;;;0.60;;
2021;SDS011;1015;49.756;6.994;2023-04-01T13:34:08;2.00;;;0.50;;
2021;SDS011;1015;49.756;6.994;2023-04-01T13:36:41;0.40;;;0.40;;
2021;SDS011;1015;49.756;6.994;2023-04-01T13:39:22;0.57;;;0.50;;
2021;SDS011;1015;49.756;6.994;2023-04-01T13:41:55;0.40;;;0.40;;
2021;SDS011;1015;49.756;6.994;2023-04-01T13:44:28;0.70;;;0.70;;
2021;SDS011;1015;49.756;6.994;2023-04-01T13:47:02;0.60;;;0.60;;
2021;SDS011;1015;49.756;6.994;2023-04-01T13:49:46;0.70;;;0.70;;
2021;SDS011;1015;49.756;6.994;2023-04-01T13:52:22;0.70;;;0.70;;
2021;SDS011;1015;49.756;6.994;2023-04-01T13:57:46;0.60;;;0.60;;
2021;SDS011;1015;49.756;6.994;2023-04-01T14:00:19;0.87;;;0.80;;
2021;SDS011;1015;49.756;6.994;2023-04-01T14:02:51;0.90;;;0.70;;
2021;SDS011;1015;49.756;6.994;2023-04-01T14:05:25;1.60;;;0.80;;
2021;SDS011;1015;49.756;6.994;2023-04-01T14:07:57;1.33;;;0.70;;
2021;SDS011;1015;49.756;6.994;2023-04-01T14:10:28;1.17;;;0.70;;
2021;SDS011;1015;49.756;6.994;2023-04-01T14:13:01;1.27;;;0.70;;
2021;SDS011;1015;49.756;6.994;2023-04-01T14:15:41;1.10;;;0.60;;
2021;SDS011;1015;49.756;6.994;2023-04-01T14:18:13;0.60;;;0.50;;
2021;SDS011;1015;49.756;6.994;2023-04-01T14:20:45;0.70;;;0.70;;
2021;SDS011;1015;49.756;6.994;2023-04-01T14:23:21;0.50;;;0.50;;
2021;SDS011;1015;49.756;6.994;2023-04-01T14:25:54;1.07;;;0.50;;
2021;SDS011;1015;49.756;6.994;2023-04-01T14:28:28;1.90;;;0.60;;
2021;SDS011;1015;49.756;6.994;2023-04-01T14:31:08;0.60;;;0.60;;
2021;SDS011;1015;49.756;6.994;2023-04-01T14:33:41;1.00;;;0.80;;
2021;SDS011;1015;49.756;6.994;2023-04-01T14:36:24;0.50;;;0.50;;
2021;SDS011;1015;49.756;6.994;2023-04-01T14:38:59;0.60;;;0.60;;
2021;SDS011;1015;49.756;6.994;2023-04-01T14:41:31;0.60;;;0.60;;
2021;SDS011;1015;49.756;6.994;2023-04-01T14:49:32;0.60;;;0.50;;
2021;SDS011;1015;49.756;6.994;2023-04-01T14:52:05;0.70;;;0.67;;
2021;SDS011;1015;49.756;6.994;2023-04-01T14:54:36;0.60;;;0.60;;
2021;SDS011;1015;49.756;6.994;2023-04-01T14:57:07;0.70;;;0.60;;
2021;SDS011;1015;49.756;6.994;2023-04-01T14:59:39;2.10;;;0.80;;
2021;SDS011;1015;49.756;6.994;2023-04-01T15:02:08;0.87;;;0.60;;
2021;SDS011;1015;49.756;6.994;2023-04-01T15:04:46;0.77;;;0.70;;
2021;SDS011;1015;49.756;6.994;2023-04-01T15:10:02;0.67;;;0.60;;
2021;SDS011;1015;49.756;6.994;2023-04-01T15:12:34;0.80;;;0.80;;
2021;SDS011;1015;49.756;6.994;2023-04-01T15:15:11;0.80;;;0.73;;
2021;SDS011;1015;49.756;6.994;2023-04-01T15:17:45;3.07;;;0.70;;
2021;SDS011;1015;49.756;6.994;2023-04-01T15:23:08;0.60;;;0.60;;
2021;SDS011;1015;49.756;6.994;2023-04-01T15:25:44;0.70;;;0.70;;
2021;SDS011;1015;49.756;6.994;2023-04-01T15:28:16;1.17;;;0.60;;
2021;SDS011;1015;49.756;6.994;2023-04-01T15:30:48;0.80;;;0.80;;
2021;SDS011;1015;49.756;6.994;2023-04-01T15:33:24;1.10;;;0.90;;
2021;SDS011;1015;49.756;6.994;2023-04-01T15:35:57;0.73;;;0.73;;
2021;SDS011;1015;49.756;6.994;2023-04-01T15:38:31;1.90;;;0.73;;
2021;SDS011;1015;49.756;6.994;2023-04-01T15:41:07;0.97;;;0.80;;
2021;SDS011;1015;49.756;6.994;2023-04-01T15:43:37;0.70;;;0.70;;
2021;SDS011;1015;49.756;6.994;2023-04-01T15:49:09;0.70;;;0.70;;
2021;SDS011;1015;49.756;6.994;2023-04-01T15:51:41;1.13;;;0.90;;
2021;SDS011;1015;49.756;6.994;2023-04-01T15:54:21;0.90;;;0.80;;
2021;SDS011;1015;49.756;6.994;2023-04-01T15:56:53;0.90;;;0.60;;
2021;SDS011;1015;49.756;6.994;2023-04-01T15:59:28;1.03;;;0.80;;
2021;SDS011;1015;49.756;6.994;2023-04-01T16:02:07;0.70;;;0.70;;
2021;SDS011;1015;49.756;6.994;2023-04-01T16:04:44;1.47;;;1.00;;
2021;SDS011;1015;49.756;6.994;2023-04-01T16:07:17;0.80;;;0.80;;
2021;SDS011;1015;49.756;6.994;2023-04-01T16:09:55;0.80;;;0.80;;
2021;SDS011;1015;49.756;6.994;2023-04-01T16:12:31;0.90;;;0.80;;
2021;SDS011;1015;49.756;6.994;2023-04-01T16:15:03;0.80;;;0.80;;
2021;SDS011;1015;49.756;6.994;2023-04-01T16:17:44;1.20;;;1.10;;
2021;SDS011;1015;49.756;6.994;2023-04-01T16:20:15;0.90;;;0.90;;
2021;SDS011;1015;49.756;6.994;2023-04-01T16:22:45;0.97;;;0.77;;
2021;SDS011;1015;49.756;6.994;2023-04-01T16:25:32;0.80;;;0.80;;
2021;SDS011;1015;49.756;6.994;2023-04-01T16:28:09;0.80;;;0.80;;
2021;SDS011;1015;49.756;6.994;2023-04-01T16:30:42;1.03;;;0.93;;
2021;SDS011;1015;49.756;6.994;2023-04-01T16:33:12;1.03;;;1.00;;
2021;SDS011;1015;49.756;6.994;2023-04-01T16:35:41;1.00;;;0.70;;
2021;SDS011;1015;49.756;6.994;2023-04-01T16:38:13;1.20;;;0.80;;
2021;SDS011;1015;49.756;6.994;2023-04-01T16:40:44;1.07;;;1.00;;
2021;SDS011;1015;49.756;6.994;2023-04-01T16:43:16;0.90;;;0.90;;
2021;SDS011;1015;49.756;6.994;2023-04-01T16:45:47;1.13;;;0.93;;
2021;SDS011;1015;49.756;6.994;2023-04-01T16:48:22;1.07;;;1.00;;
2021;SDS011;1015;49.756;6.994;2023-04-01T16:50:54;1.27;;;0.90;;
2021;SDS011;1015;49.756;6.994;2023-04-01T16:53:25;1.33;;;0.87;;
2021;SDS011;1015;49.756;6.994;2023-04-01T16:56:04;1.00;;;0.90;;
2021;SDS011;1015;49.756;6.994;2023-04-01T16:58:39;1.57;;;1.00;;
2021;SDS011;1015;49.756;6.994;2023-04-01T17:01:11;0.77;;;0.77;;
2021;SDS011;1015;49.756;6.994;2023-04-01T17:03:41;0.70;;;0.70;;
2021;SDS011;1015;49.756;6.994;2023-04-01T17:06:13;0.73;;;0.73;;
2021;SDS011;1015;49.756;6.994;2023-04-01T17:08:52;3.70;;;0.87;;
2021;SDS011;1015;49.756;6.994;2023-04-01T17:11:29;1.37;;;0.93;;